Time;durP1;ratioP1;P1;durP2;ratioP2;P2;SDS_P1;SDS_P2;PMS_P1;PMS_P2;Temp;Humidity;BMP_temperature;BMP_pressure;BME280_temperature;BME280_humidity;BME280_pressure;Samples;Min_cycle;Max_cycle;Signal;HPM_P1;HPM_P2
2023/06/08 00:02:28;;;;;;;15.07;6.30;;;;;;;17.03;100.00;101755.75;5273671;28;20401;-75
2023/06/08 00:05:02;;;;;;;14.55;6.60;;;;;;;16.95;100.00;101756.59;5266149;28;20497;-76
2023/06/08 00:07:36;;;;;;;11.85;6.30;;;;;;;16.90;100.00;101748.13;5269383;28;20181;-75
2023/06/08 00:10:09;;;;;;;17.15;6.55;;;;;;;16.80;100.00;101755.47;5272805;28;20051;-75
2023/06/08 00:12:41;;;;;;;10.75;6.70;;;;;;;16.79;100.00;101756.47;5268186;28;20042;-75
2023/06/08 00:15:13;;;;;;;13.90;6.90;;;;;;;16.83;100.00;101749.75;5269978;28;20468;-76
2023/06/08 00:17:44;;;;;;;13.35;6.75;;;;;;;16.70;100.00;101752.88;5273135;28;20515;-75
2023/06/08 00:20:16;;;;;;;16.10;6.90;;;;;;;16.71;100.00;101751.88;5268528;28;20125;-75
2023/06/08 00:22:47;;;;;;;11.85;6.32;;;;;;;16.66;100.00;101751.53;5273673;28;20040;-76
2023/06/08 00:25:19;;;;;;;14.88;6.55;;;;;;;16.66;100.00;101748.81;5274462;28;20020;-75
2023/06/08 00:27:50;;;;;;;11.25;6.57;;;;;;;16.60;100.00;101747.63;5275466;28;20048;-75
2023/06/08 00:30:21;;;;;;;16.05;6.72;;;;;;;16.51;100.00;101745.88;5273444;28;20090;-75
2023/06/08 00:32:53;;;;;;;13.77;7.53;;;;;;;16.45;100.00;101744.66;5266563;28;20430;-75
2023/06/08 00:35:24;;;;;;;15.75;7.00;;;;;;;16.43;100.00;101740.47;5266537;28;20118;-75
2023/06/08 00:37:55;;;;;;;18.40;7.15;;;;;;;16.38;100.00;101750.84;5272865;28;20032;-75
2023/06/08 00:40:27;;;;;;;18.85;7.32;;;;;;;16.32;100.00;101743.41;5267839;28;20032;-76
2023/06/08 00:42:58;;;;;;;11.25;6.47;;;;;;;16.32;100.00;101746.09;5270819;28;20031;-75
2023/06/08 00:45:30;;;;;;;20.38;8.02;;;;;;;16.32;100.00;101740.72;5274801;28;20023;-76
2023/06/08 00:48:02;;;;;;;12.25;7.75;;;;;;;16.24;100.00;101736.97;5265540;28;20389;-77
2023/06/08 00:50:35;;;;;;;15.15;7.43;;;;;;;16.20;100.00;101737.44;5278261;28;20044;-77
2023/06/08 00:53:06;;;;;;;15.23;7.30;;;;;;;16.17;100.00;101732.38;5265182;28;20035;-76
2023/06/08 00:55:38;;;;;;;14.35;7.03;;;;;;;16.18;100.00;101731.34;5267353;28;20032;-76
2023/06/08 00:58:13;;;;;;;15.70;7.50;;;;;;;16.15;100.00;101735.22;5270340;28;20025;-76
2023/06/08 01:00:46;;;;;;;18.63;7.75;;;;;;;16.08;100.00;101728.78;5268140;28;20441;-75
2023/06/08 01:03:19;;;;;;;12.88;7.90;;;;;;;16.00;100.00;101721.47;5267794;28;20028;-75
2023/06/08 01:05:52;;;;;;;17.48;7.95;;;;;;;16.06;100.00;101720.03;5271206;28;20047;-77
2023/06/08 01:08:57;;;;;;;15.85;7.60;;;;;;;16.05;100.00;101719.16;5264889;28;20279;-76
2023/06/08 01:11:49;;;;;;;12.93;6.82;;;;;;;16.02;100.00;101730.25;5268809;28;20151;-75
2023/06/08 01:14:38;;;;;;;17.77;8.05;;;;;;;15.94;100.00;101729.34;5266671;28;20074;-75
2023/06/08 01:17:14;;;;;;;17.00;8.80;;;;;;;15.96;100.00;101728.19;5281945;28;20477;-76
2023/06/08 01:20:06;;;;;;;18.40;7.85;;;;;;;16.00;100.00;101717.94;5273391;28;20478;-76
2023/06/08 01:23:00;;;;;;;12.65;7.35;;;;;;;15.99;100.00;101727.03;5268251;28;20032;-77
2023/06/08 01:25:32;;;;;;;16.67;7.72;;;;;;;15.86;100.00;101719.34;5268526;28;20406;-75
2023/06/08 01:28:15;;;;;;;14.65;7.70;;;;;;;15.83;100.00;101716.97;5270926;28;20520;-76
2023/06/08 01:30:51;;;;;;;15.15;7.30;;;;;;;15.77;100.00;101722.97;5264482;28;20038;-74
2023/06/08 01:33:26;;;;;;;13.43;7.35;;;;;;;15.77;100.00;101717.59;5265663;28;20487;-75
2023/06/08 01:36:20;;;;;;;16.00;7.10;;;;;;;15.79;100.00;101718.28;5266217;28;20036;-75
2023/06/08 01:39:03;;;;;;;13.70;7.82;;;;;;;15.68;100.00;101720.19;5268507;28;20290;-75
2023/06/08 01:41:38;;;;;;;15.55;8.10;;;;;;;15.61;100.00;101729.88;5270132;28;20372;-75
2023/06/08 01:44:12;;;;;;;13.23;7.63;;;;;;;15.59;100.00;101720.28;5278277;28;20028;-76
2023/06/08 01:46:53;;;;;;;13.15;8.07;;;;;;;15.54;100.00;101720.72;5268000;28;20036;-76
2023/06/08 01:49:26;;;;;;;16.05;8.15;;;;;;;15.42;100.00;101712.03;5271373;28;20024;-76
2023/06/08 01:51:58;;;;;;;19.50;8.10;;;;;;;15.35;100.00;101716.34;5274397;28;20107;-75
2023/06/08 01:54:29;;;;;;;18.13;9.27;;;;;;;15.38;100.00;101705.28;5269821;28;20027;-76
2023/06/08 01:57:02;;;;;;;13.85;8.07;;;;;;;15.31;100.00;101701.53;5264837;28;20032;-75
2023/06/08 01:59:33;;;;;;;14.38;8.15;;;;;;;15.35;100.00;101702.91;5266847;28;20553;-75
2023/06/08 02:02:05;;;;;;;17.13;8.40;;;;;;;15.27;100.00;101692.94;5274108;28;20055;-75
2023/06/08 02:04:36;;;;;;;15.85;8.57;;;;;;;15.31;100.00;101701.53;5267264;28;20077;-76
2023/06/08 02:07:08;;;;;;;16.17;7.95;;;;;;;15.34;100.00;101709.28;5267024;28;20028;-76
2023/06/08 02:09:39;;;;;;;20.73;9.30;;;;;;;15.20;100.00;101710.66;5272035;28;20573;-76
2023/06/08 02:12:10;;;;;;;17.85;9.35;;;;;;;15.21;100.00;101708.81;5267149;28;20024;-76
2023/06/08 02:14:41;;;;;;;15.77;8.50;;;;;;;15.12;100.00;101707.88;5266185;28;20405;-75
2023/06/08 02:17:13;;;;;;;16.13;8.57;;;;;;;15.11;100.00;101711.53;5277350;28;20024;-77
2023/06/08 02:19:44;;;;;;;17.30;8.60;;;;;;;15.07;100.00;101704.78;5268982;28;20056;-75
2023/06/08 02:22:16;;;;;;;13.80;8.77;;;;;;;14.99;100.00;101707.38;5268558;28;20040;-76
2023/06/08 02:24:48;;;;;;;16.80;9.32;;;;;;;14.91;100.00;101714.34;5271227;28;20078;-75
2023/06/08 02:27:20;;;;;;;14.75;8.75;;;;;;;14.88;100.00;101714.66;5268252;28;20073;-75
2023/06/08 02:29:51;;;;;;;19.27;9.27;;;;;;;14.85;100.00;101706.03;5264852;28;20480;-76
2023/06/08 02:32:23;;;;;;;16.75;10.00;;;;;;;14.83;100.00;101713.41;5267951;28;20498;-76
2023/06/08 02:34:55;;;;;;;16.83;9.27;;;;;;;14.74;100.00;101710.63;5269238;28;20027;-76
2023/06/08 02:37:27;;;;;;;18.60;9.63;;;;;;;14.75;100.00;101712.31;5266868;28;20036;-78
2023/06/08 02:39:58;;;;;;;17.27;9.23;;;;;;;14.78;100.00;101708.50;5263453;28;20465;-77
2023/06/08 02:42:30;;;;;;;16.90;8.93;;;;;;;14.70;100.00;101713.75;5274873;28;20115;-76
2023/06/08 02:45:01;;;;;;;16.98;9.30;;;;;;;14.64;100.00;101712.53;5265496;28;20404;-77
2023/06/08 02:47:32;;;;;;;17.75;9.00;;;;;;;14.64;100.00;101711.66;5269765;28;20024;-75
2023/06/08 02:50:04;;;;;;;13.43;9.20;;;;;;;14.52;100.00;101710.97;5272223;28;20038;-77
2023/06/08 02:52:35;;;;;;;15.70;9.35;;;;;;;14.58;100.00;101705.03;5273010;28;20036;-76
2023/06/08 02:55:07;;;;;;;16.70;9.27;;;;;;;14.44;100.00;101714.38;5267603;28;20509;-76
2023/06/08 02:57:38;;;;;;;14.02;9.40;;;;;;;14.41;100.00;101714.69;5270967;28;20032;-76
2023/06/08 03:00:12;;;;;;;19.65;10.93;;;;;;;14.32;100.00;101713.75;5270171;28;20111;-75
2023/06/08 03:02:44;;;;;;;18.95;9.57;;;;;;;14.42;100.00;101712.84;5268921;28;20044;-75
2023/06/08 03:05:15;;;;;;;21.05;9.82;;;;;;;14.37;100.00;101714.16;5275691;28;20043;-75
2023/06/08 03:07:47;;;;;;;17.33;9.95;;;;;;;14.29;100.00;101707.81;5269999;28;20054;-76
2023/06/08 03:10:19;;;;;;;24.05;9.68;;;;;;;14.26;100.00;101708.94;5266619;28;20075;-76
2023/06/08 03:12:50;;;;;;;20.55;9.65;;;;;;;14.18;100.00;101700.75;5270669;28;20040;-75
2023/06/08 03:15:22;;;;;;;16.13;8.90;;;;;;;14.17;100.00;101701.75;5269556;28;20557;-76
2023/06/08 03:17:54;;;;;;;16.40;9.75;;;;;;;14.09;100.00;101698.94;5268268;28;20036;-75
2023/06/08 03:20:25;;;;;;;14.85;9.90;;;;;;;14.22;100.00;101699.50;5273492;28;20052;-75
2023/06/08 03:22:57;;;;;;;19.08;10.23;;;;;;;14.13;100.00;101701.22;5272006;28;20031;-76
2023/06/08 03:25:28;;;;;;;19.42;10.65;;;;;;;14.05;100.00;101701.06;5272918;28;20149;-75
2023/06/08 03:27:59;;;;;;;18.77;9.98;;;;;;;14.05;100.00;101703.75;5269029;28;20475;-76
2023/06/08 03:30:31;;;;;;;16.90;10.05;;;;;;;13.99;100.00;101707.03;5268695;28;20158;-75
2023/06/08 03:33:05;;;;;;;19.48;11.93;;;;;;;14.03;100.00;101703.06;5270881;28;20027;-75
2023/06/08 03:35:37;;;;;;;18.13;11.13;;;;;;;14.00;100.00;101708.72;5267944;28;20055;-75
2023/06/08 03:38:08;;;;;;;19.63;10.75;;;;;;;13.87;100.00;101710.88;5276161;28;20031;-77
2023/06/08 03:40:39;;;;;;;12.88;9.43;;;;;;;13.90;100.00;101711.41;5272154;28;20029;-76
2023/06/08 03:43:10;;;;;;;20.13;10.30;;;;;;;13.92;100.00;101708.56;5276433;28;20135;-76
2023/06/08 03:45:42;;;;;;;17.02;9.80;;;;;;;13.91;100.00;101709.56;5275776;28;20472;-75
2023/06/08 03:48:13;;;;;;;17.85;10.82;;;;;;;13.76;100.00;101714.50;5275080;28;20448;-77
2023/06/08 03:50:44;;;;;;;20.40;11.20;;;;;;;13.89;100.00;101706.19;5272060;28;20507;-71
2023/06/08 03:53:16;;;;;;;18.15;10.45;;;;;;;13.86;100.00;101698.44;5270488;28;20147;-71
2023/06/08 03:55:47;;;;;;;16.92;10.05;;;;;;;13.86;100.00;101707.31;5271688;28;20036;-71
2023/06/08 03:58:18;;;;;;;17.50;10.40;;;;;;;13.85;100.00;101699.41;5274369;28;20028;-71
2023/06/08 04:00:49;;;;;;;18.73;10.63;;;;;;;13.87;100.00;101695.59;5270120;28;20151;-71
2023/06/08 04:03:24;;;;;;;17.98;10.50;;;;;;;13.89;100.00;101698.16;5273191;28;20032;-71
2023/06/08 04:05:56;;;;;;;21.27;10.75;;;;;;;13.94;100.00;101703.94;5270654;28;20032;-71
2023/06/08 04:08:31;;;;;;;22.98;10.73;;;;;;;13.97;100.00;101699.13;5265605;28;20843;-71
2023/06/08 04:11:02;;;;;;;14.70;10.07;;;;;;;13.91;100.00;101697.00;5273866;28;20033;-71
2023/06/08 04:13:36;;;;;;;19.05;9.95;;;;;;;13.92;100.00;101698.72;5267917;28;20039;-71
2023/06/08 04:16:09;;;;;;;21.83;11.25;;;;;;;13.90;100.00;101700.69;5275240;28;20520;-71
2023/06/08 04:18:41;;;;;;;22.15;11.52;;;;;;;13.88;100.00;101699.97;5266473;28;20060;-71
2023/06/08 04:21:12;;;;;;;20.73;11.68;;;;;;;13.84;100.00;101700.41;5270776;28;20029;-71
2023/06/08 04:23:46;;;;;;;23.40;11.48;;;;;;;13.90;100.00;101698.00;5273065;28;20049;-71
2023/06/08 04:26:17;;;;;;;16.70;10.55;;;;;;;13.93;100.00;101691.50;5265699;28;20441;-71
2023/06/08 04:28:49;;;;;;;17.60;11.23;;;;;;;13.92;100.00;101698.72;5269411;28;20032;-71
2023/06/08 04:31:21;;;;;;;18.00;10.55;;;;;;;13.92;100.00;101693.34;5278168;28;20027;-71
2023/06/08 04:33:52;;;;;;;19.80;10.98;;;;;;;13.93;100.00;101697.69;5275544;28;20070;-71
2023/06/08 04:36:23;;;;;;;19.08;11.50;;;;;;;13.91;100.00;101696.16;5272346;28;20028;-71
2023/06/08 04:38:56;;;;;;;17.88;11.07;;;;;;;13.94;100.00;101694.03;5269024;28;20029;-71
2023/06/08 04:41:29;;;;;;;19.13;10.88;;;;;;;13.91;100.00;101699.69;5275885;28;20519;-71
2023/06/08 04:44:01;;;;;;;16.42;10.80;;;;;;;13.92;100.00;101697.84;5276785;28;20061;-71
2023/06/08 04:46:37;;;;;;;20.60;11.13;;;;;;;13.98;100.00;101697.28;5272731;28;20028;-71
2023/06/08 04:49:09;;;;;;;25.23;11.07;;;;;;;13.90;100.00;101699.81;5267938;28;20758;-71
2023/06/08 04:51:46;;;;;;;18.38;10.88;;;;;;;13.84;100.00;101695.88;5271113;28;20735;-71
2023/06/08 04:54:21;;;;;;;17.63;11.25;;;;;;;13.80;100.00;101694.50;5266633;28;20032;-71
2023/06/08 04:56:58;;;;;;;19.55;11.23;;;;;;;13.89;100.00;101695.47;5274038;28;20185;-70
2023/06/08 04:59:29;;;;;;;16.98;11.20;;;;;;;13.96;100.00;101696.59;5270621;28;20036;-70
2023/06/08 05:02:01;;;;;;;18.10;11.63;;;;;;;14.00;100.00;101701.50;5271360;28;20028;-70
2023/06/08 05:04:32;;;;;;;19.83;11.75;;;;;;;13.99;100.00;101694.47;5270238;28;20023;-71
2023/06/08 05:07:04;;;;;;;23.67;11.65;;;;;;;13.98;100.00;101689.25;5266755;28;20039;-71
2023/06/08 05:09:35;;;;;;;20.48;11.98;;;;;;;13.99;100.00;101689.09;5268939;28;20055;-72
2023/06/08 05:12:07;;;;;;;18.70;11.90;;;;;;;14.02;100.00;101700.53;5273626;28;20173;-71
2023/06/08 05:14:38;;;;;;;19.83;11.65;;;;;;;14.02;100.00;101685.25;5268754;28;20033;-71
2023/06/08 05:17:10;;;;;;;18.70;11.18;;;;;;;14.03;100.00;101684.28;5269950;28;20115;-71
2023/06/08 05:19:41;;;;;;;21.95;13.57;;;;;;;14.11;100.00;101688.91;5271258;28;20119;-71
2023/06/08 05:22:12;;;;;;;18.15;12.00;;;;;;;14.17;100.00;101688.34;5268550;28;20553;-71
2023/06/08 05:24:43;;;;;;;18.88;11.82;;;;;;;14.18;100.00;101684.66;5273100;28;20036;-70
2023/06/08 05:27:15;;;;;;;19.65;12.07;;;;;;;14.13;100.00;101687.78;5270465;28;20034;-70
2023/06/08 05:29:46;;;;;;;22.15;11.68;;;;;;;14.26;100.00;101686.63;5266635;28;20028;-70
2023/06/08 05:32:18;;;;;;;21.05;11.13;;;;;;;14.22;100.00;101685.22;5271282;28;20101;-70
2023/06/08 05:34:50;;;;;;;21.23;12.25;;;;;;;14.32;100.00;101694.94;5268196;28;20032;-70
2023/06/08 05:37:21;;;;;;;20.88;12.15;;;;;;;14.25;100.00;101691.13;5269608;28;20579;-71
2023/06/08 05:39:53;;;;;;;19.92;12.35;;;;;;;14.32;100.00;101686.91;5270710;28;20032;-71
2023/06/08 05:42:24;;;;;;;20.35;11.65;;;;;;;14.33;100.00;101682.38;5269954;28;20032;-71
2023/06/08 05:44:55;;;;;;;17.42;12.50;;;;;;;14.43;100.00;101676.94;5267945;28;20030;-71
2023/06/08 05:47:27;;;;;;;19.88;12.18;;;;;;;14.48;100.00;101675.53;5270967;28;20028;-71
2023/06/08 05:49:58;;;;;;;17.95;12.00;;;;;;;14.52;100.00;101678.78;5269423;28;20493;-71
2023/06/08 05:52:30;;;;;;;19.85;11.60;;;;;;;14.69;100.00;101682.50;5265619;28;20425;-71
2023/06/08 05:55:02;;;;;;;17.00;11.30;;;;;;;14.71;100.00;101677.88;5268303;28;20028;-71
2023/06/08 05:57:33;;;;;;;18.08;12.35;;;;;;;14.66;100.00;101680.16;5267917;28;20622;-71
2023/06/08 06:00:09;;;;;;;19.67;11.60;;;;;;;14.73;100.00;101675.88;5267986;28;20032;-71
2023/06/08 06:02:41;;;;;;;20.85;11.25;;;;;;;14.85;100.00;101682.72;5263582;28;20037;-70
2023/06/08 06:05:12;;;;;;;21.60;12.10;;;;;;;14.93;100.00;101682.81;5271883;28;20085;-71
2023/06/08 06:07:43;;;;;;;19.23;12.05;;;;;;;14.89;100.00;101681.44;5267619;28;20544;-71
2023/06/08 06:10:15;;;;;;;17.30;11.38;;;;;;;15.07;100.00;101678.75;5265405;28;20222;-71
2023/06/08 06:12:46;;;;;;;24.55;12.02;;;;;;;15.22;100.00;101679.09;5264702;28;20028;-71
2023/06/08 06:15:19;;;;;;;20.75;12.32;;;;;;;15.39;100.00;101679.25;5270429;28;20093;-71
2023/06/08 06:17:50;;;;;;;19.30;12.57;;;;;;;15.54;100.00;101675.03;5265452;28;20560;-71
2023/06/08 06:20:22;;;;;;;23.77;14.65;;;;;;;15.78;100.00;101674.41;5267573;28;20020;-71
2023/06/08 06:22:53;;;;;;;20.67;13.38;;;;;;;15.87;100.00;101667.25;5272390;28;20101;-71
2023/06/08 06:25:24;;;;;;;20.05;12.32;;;;;;;16.03;100.00;101670.03;5263991;28;20041;-71
2023/06/08 06:27:56;;;;;;;18.73;12.15;;;;;;;16.16;100.00;101675.00;5265646;28;20035;-70
2023/06/08 06:30:27;;;;;;;17.67;12.38;;;;;;;16.43;100.00;101673.16;5262780;28;20707;-71
2023/06/08 06:32:58;;;;;;;17.25;11.63;;;;;;;16.60;100.00;101677.59;5268736;28;20489;-71
2023/06/08 06:35:30;;;;;;;20.27;13.35;;;;;;;16.75;100.00;101680.50;5264367;28;20123;-71
2023/06/08 06:38:01;;;;;;;23.42;13.45;;;;;;;17.09;100.00;101679.66;5265272;28;20908;-72
2023/06/08 06:40:32;;;;;;;18.52;11.77;;;;;;;17.31;100.00;101680.00;5267532;28;20038;-71
2023/06/08 06:43:03;;;;;;;18.35;10.93;;;;;;;17.57;100.00;101687.97;5255583;28;20031;-71
2023/06/08 06:45:37;;;;;;;20.45;11.57;;;;;;;17.73;100.00;101685.25;5269592;28;20032;-71
2023/06/08 06:48:08;;;;;;;22.50;12.02;;;;;;;18.00;100.00;101685.09;5267915;28;20388;-71
2023/06/08 06:50:40;;;;;;;21.40;12.52;;;;;;;18.17;100.00;101683.22;5267193;28;20118;-71
2023/06/08 06:53:11;;;;;;;19.23;12.05;;;;;;;18.36;100.00;101688.22;5271125;28;20052;-71
2023/06/08 06:55:42;;;;;;;21.60;12.25;;;;;;;18.55;100.00;101691.53;5266429;28;20035;-71
2023/06/08 06:58:15;;;;;;;20.60;11.98;;;;;;;18.79;100.00;101690.59;5268334;28;20024;-71
2023/06/08 07:00:46;;;;;;;20.27;11.48;;;;;;;18.94;100.00;101694.28;5271620;28;20028;-71
2023/06/08 07:03:17;;;;;;;18.63;11.40;;;;;;;19.10;100.00;101693.34;5267059;28;20491;-71
2023/06/08 07:05:49;;;;;;;19.10;11.73;;;;;;;19.18;100.00;101687.03;5272632;28;20127;-72
2023/06/08 07:08:20;;;;;;;16.48;10.60;;;;;;;19.51;100.00;101689.50;5268015;28;20063;-71
2023/06/08 07:10:52;;;;;;;21.75;12.73;;;;;;;19.70;100.00;101699.84;5268756;28;20446;-72
2023/06/08 07:13:23;;;;;;;16.52;11.15;;;;;;;19.76;100.00;101690.19;5271944;28;20028;-71
2023/06/08 07:15:54;;;;;;;21.35;11.05;;;;;;;19.98;100.00;101694.69;5265169;28;20082;-71
2023/06/08 07:18:26;;;;;;;14.52;10.80;;;;;;;20.11;100.00;101694.09;5270757;28;20103;-71
2023/06/08 07:20:57;;;;;;;18.45;12.02;;;;;;;20.34;100.00;101691.31;5264854;28;20163;-70
2023/06/08 07:23:28;;;;;;;24.30;11.13;;;;;;;20.48;100.00;101692.34;5266537;28;20024;-71
2023/06/08 07:26:00;;;;;;;18.77;11.02;;;;;;;20.78;100.00;101690.44;5268800;28;20024;-71
2023/06/08 07:28:31;;;;;;;19.80;11.40;;;;;;;20.87;100.00;101685.75;5264272;28;20035;-71
2023/06/08 07:31:03;;;;;;;17.40;11.18;;;;;;;20.99;100.00;101680.69;5267761;28;20023;-71
2023/06/08 07:33:34;;;;;;;17.45;11.20;;;;;;;21.14;100.00;101681.50;5272742;28;20509;-71
2023/06/08 07:36:06;;;;;;;21.13;11.20;;;;;;;21.33;100.00;101679.16;5272485;28;20555;-71
2023/06/08 07:38:37;;;;;;;18.05;11.02;;;;;;;21.43;100.00;101687.84;5266834;28;20028;-71
2023/06/08 07:41:08;;;;;;;17.52;11.45;;;;;;;21.49;100.00;101678.97;5271230;28;20504;-71
2023/06/08 07:43:40;;;;;;;18.17;11.82;;;;;;;21.58;100.00;101684.22;5276593;28;20607;-71
2023/06/08 07:46:12;;;;;;;17.98;11.27;;;;;;;21.92;100.00;101680.78;5276201;28;20027;-71
2023/06/08 07:48:43;;;;;;;18.80;11.27;;;;;;;21.99;100.00;101680.81;5271121;28;20382;-71
2023/06/08 07:51:15;;;;;;;18.27;10.85;;;;;;;22.17;100.00;101673.00;5266978;28;20027;-72
2023/06/08 07:53:46;;;;;;;17.05;11.57;;;;;;;22.36;100.00;101674.19;5270419;28;20063;-71
2023/06/08 07:56:18;;;;;;;15.52;10.70;;;;;;;22.62;100.00;101676.19;5266151;28;20024;-72
2023/06/08 07:58:49;;;;;;;17.23;10.23;;;;;;;22.72;100.00;101672.25;5272854;28;20038;-71
2023/06/08 08:01:20;;;;;;;19.10;10.13;;;;;;;22.96;100.00;101676.31;5273180;28;20035;-71
2023/06/08 08:03:52;;;;;;;15.85;9.80;;;;;;;23.13;100.00;101683.09;5267500;28;20047;-71
2023/06/08 08:06:23;;;;;;;18.38;11.73;;;;;;;23.12;100.00;101675.97;5274053;28;20801;-71
2023/06/08 08:08:54;;;;;;;16.88;10.50;;;;;;;23.26;100.00;101668.69;5277494;28;20032;-71
2023/06/08 08:11:27;;;;;;;19.15;10.48;;;;;;;23.13;100.00;101672.22;5271490;28;20052;-71
2023/06/08 08:13:58;;;;;;;12.88;10.38;;;;;;;23.13;100.00;101676.84;5275950;28;20024;-72
2023/06/08 08:16:29;;;;;;;18.70;11.25;;;;;;;23.36;100.00;101669.13;5271638;28;20035;-72
2023/06/08 08:19:01;;;;;;;17.30;12.35;;;;;;;23.41;100.00;101665.78;5270106;28;20439;-72
2023/06/08 08:21:32;;;;;;;20.95;11.88;;;;;;;23.36;100.00;101660.94;5268822;28;20025;-72
2023/06/08 08:24:05;;;;;;;16.17;10.77;;;;;;;23.73;100.00;101675.00;5266074;28;20109;-72
2023/06/08 08:26:40;;;;;;;15.75;10.48;;;;;;;23.88;100.00;101663.09;5272919;28;20040;-71
2023/06/08 08:29:11;;;;;;;14.20;10.37;;;;;;;24.16;100.00;101663.66;5275785;28;20039;-72
2023/06/08 08:31:43;;;;;;;19.10;11.00;;;;;;;24.48;100.00;101665.69;5277208;28;20024;-71
2023/06/08 08:34:14;;;;;;;17.27;9.90;;;;;;;24.63;100.00;101655.38;5264894;28;20382;-72
2023/06/08 08:36:45;;;;;;;16.95;10.95;;;;;;;24.73;100.00;101668.53;5271942;28;20394;-72
2023/06/08 08:39:17;;;;;;;16.33;9.90;;;;;;;25.27;100.00;101667.22;5273893;28;20165;-72
2023/06/08 08:41:53;;;;;;;16.92;9.63;;;;;;;25.51;100.00;101664.75;5269523;28;20029;-72
2023/06/08 08:44:24;;;;;;;;;;;;;;;25.95;100.00;101671.09;5276593;28;21738;-72
2023/06/08 08:47:02;;;;;;;16.02;10.15;;;;;;;25.80;100.00;101662.38;5275442;28;19920;-72
2023/06/08 08:49:39;;;;;;;14.55;10.25;;;;;;;25.77;100.00;101674.63;5266895;28;20078;-72
2023/06/08 08:52:11;;;;;;;22.65;15.23;;;;;;;26.03;100.00;101673.56;5268878;28;20147;-72
2023/06/08 08:54:43;;;;;;;16.23;11.50;;;;;;;26.24;100.00;101663.22;5276497;28;20541;-72
2023/06/08 08:57:15;;;;;;;16.60;9.93;;;;;;;26.06;100.00;101658.59;5267547;28;20032;-72
2023/06/08 08:59:48;;;;;;;16.45;9.00;;;;;;;26.25;100.00;101656.72;5270310;28;20361;-88
2023/06/08 09:02:19;;;;;;;13.30;9.40;;;;;;;26.30;100.00;101654.13;5280978;28;20063;-86
2023/06/08 09:04:54;;;;;;;16.65;9.63;;;;;;;26.67;100.00;101661.50;5272792;28;20412;-90
2023/06/08 09:07:35;;;;;;;14.15;8.50;;;;;;;26.89;100.00;101657.19;5272333;28;20028;-87
2023/06/08 09:10:22;;;;;;;12.43;8.07;;;;;;;27.10;100.00;101647.63;5271273;28;20028;-90
2023/06/08 09:13:00;;;;;;;12.65;8.88;;;;;;;27.11;100.00;101653.94;5271622;28;20603;-90
2023/06/08 09:15:37;;;;;;;14.50;9.57;;;;;;;27.13;100.00;101649.91;5273548;28;20445;-88
2023/06/08 09:18:17;;;;;;;13.73;9.13;;;;;;;27.27;100.00;101646.97;5270663;28;20096;-88
2023/06/08 09:20:49;;;;;;;11.88;7.90;;;;;;;27.39;100.00;101650.59;5275805;28;20036;-89
2023/06/08 09:23:25;;;;;;;14.50;8.48;;;;;;;27.63;100.00;101650.59;5270299;28;20028;-89
2023/06/08 09:26:00;;;;;;;13.23;8.57;;;;;;;27.71;100.00;101645.63;5277372;28;20032;-88
2023/06/08 09:28:35;;;;;;;9.35;7.38;;;;;;;28.04;100.00;101638.72;5266945;28;20028;-90
2023/06/08 09:31:09;;;;;;;13.68;7.65;;;;;;;28.23;100.00;101635.84;5267097;28;20012;-88
2023/06/08 09:33:50;;;;;;;11.43;6.47;;;;;;;28.47;100.00;101628.38;5277767;28;20514;-92
2023/06/08 09:36:21;;;;;;;14.50;7.53;;;;;;;28.21;100.00;101630.59;5279707;28;20071;-87
2023/06/08 09:38:55;;;;;;;11.45;7.63;;;;;;;28.54;100.00;101639.22;5277659;28;20423;-88
2023/06/08 09:41:27;;;;;;;14.93;10.15;;;;;;;28.57;100.00;101633.28;5275318;28;20036;-89
2023/06/08 09:43:59;;;;;;;11.20;9.02;;;;;;;28.84;100.00;101633.53;5275910;28;20025;-90
2023/06/08 09:46:41;;;;;;;9.90;7.95;;;;;;;29.26;100.00;101635.97;5272161;28;20135;-89
2023/06/08 09:49:14;;;;;;;10.10;7.15;;;;;;;29.31;100.00;101632.44;5268327;28;20489;-89
2023/06/08 09:51:48;;;;;;;9.73;6.88;;;;;;;29.33;100.00;101624.78;5273252;28;20098;-89
2023/06/08 09:54:20;;;;;;;15.95;6.90;;;;;;;29.67;100.00;101628.38;5273298;28;20032;-89
2023/06/08 09:56:55;;;;;;;11.27;6.15;;;;;;;29.77;100.00;101631.31;5275034;28;20127;-88
2023/06/08 09:59:28;;;;;;;11.00;6.15;;;;;;;29.69;98.59;101626.19;5269710;28;20082;-87
2023/06/08 10:02:17;;;;;;;9.30;5.88;;;;;;;30.07;100.00;101618.25;5264743;28;20033;-87
2023/06/08 10:04:57;;;;;;;13.10;6.43;;;;;;;30.23;98.27;101625.59;5267023;28;20036;-86
2023/06/08 10:07:35;;;;;;;9.68;5.18;;;;;;;30.41;96.87;101618.97;5269093;28;20030;-88
2023/06/08 10:10:35;;;;;;;8.35;5.90;;;;;;;30.65;96.96;101618.69;5277305;28;20486;-88
2023/06/08 10:13:10;;;;;;;10.15;5.75;;;;;;;30.80;97.58;101616.06;5270606;28;20662;-90
2023/06/08 10:15:42;;;;;;;13.10;5.93;;;;;;;30.73;93.33;101607.19;5270440;28;20112;-89
2023/06/08 10:18:14;;;;;;;10.50;6.20;;;;;;;30.58;91.87;101612.56;5265078;28;20942;-86
2023/06/08 10:20:46;;;;;;;6.15;5.07;;;;;;;30.78;92.06;101610.00;5281271;28;20075;-88
2023/06/08 10:23:18;;;;;;;9.73;5.45;;;;;;;31.14;91.17;101613.13;5267427;28;20074;-89
2023/06/08 10:25:50;;;;;;;10.60;4.90;;;;;;;31.29;89.59;101610.53;5268665;28;20040;-90
2023/06/08 10:28:22;;;;;;;9.65;5.75;;;;;;;31.10;86.83;101600.97;5278342;28;20031;-90
2023/06/08 10:30:53;;;;;;;6.45;4.05;;;;;;;31.41;85.91;101599.28;5269235;28;20024;-90
2023/06/08 10:33:27;;;;;;;7.32;4.70;;;;;;;31.25;86.28;101592.00;5273863;28;20641;-88
2023/06/08 10:36:13;;;;;;;9.68;3.78;;;;;;;31.60;85.80;101596.97;5266623;28;20032;-90
2023/06/08 10:38:54;;;;;;;5.45;3.42;;;;;;;31.82;83.39;101594.09;5272520;28;20039;-87
2023/06/08 10:41:52;;;;;;;4.90;4.40;;;;;;;31.74;83.77;101591.81;5276962;28;20105;-89
2023/06/08 10:44:27;;;;;;;6.57;4.22;;;;;;;31.41;81.74;101588.25;5264278;28;20055;-88
2023/06/08 10:47:09;;;;;;;;;;;;;;;32.19;84.86;101595.13;5271846;28;20024;-86
2023/06/08 10:49:45;;;;;;;8.93;3.97;;;;;;;31.84;82.43;101580.84;5271357;28;19927;-88
2023/06/08 10:52:21;;;;;;;7.20;4.07;;;;;;;31.66;81.21;101578.53;5265252;28;20736;-88
2023/06/08 10:54:57;;;;;;;7.18;5.13;;;;;;;31.41;79.27;101574.47;5274137;28;20035;-87
2023/06/08 10:57:46;;;;;;;12.23;4.43;;;;;;;31.90;82.40;101581.69;5273941;28;20622;-89
2023/06/08 11:00:22;;;;;;;13.02;4.55;;;;;;;31.82;80.80;101584.94;5269603;28;20039;-89
2023/06/08 11:02:53;;;;;;;;;;;;;;;32.72;82.98;101576.50;5269786;28;20109;-84
2023/06/08 11:05:29;;;;;;;7.40;4.10;;;;;;;32.17;80.12;101578.81;5268590;28;20547;-89
2023/06/08 11:08:01;;;;;;;7.95;4.65;;;;;;;32.15;78.69;101569.97;5272210;28;20374;-88
2023/06/08 11:10:37;;;;;;;10.73;5.70;;;;;;;31.71;75.57;101561.19;5269139;28;20127;-88
2023/06/08 11:13:13;;;;;;;12.73;6.00;;;;;;;31.50;76.65;101561.06;5273096;28;20373;-88
2023/06/08 11:15:47;;;;;;;13.75;5.28;;;;;;;31.40;76.37;101555.44;5279417;28;20551;-88
2023/06/08 11:18:20;;;;;;;9.95;4.18;;;;;;;31.87;75.95;101557.41;5269613;28;20151;-87
2023/06/08 11:20:52;;;;;;;6.95;3.85;;;;;;;31.85;75.85;101559.59;5274595;28;20036;-87
2023/06/08 11:23:26;;;;;;;10.18;4.43;;;;;;;32.08;75.27;101561.09;5268772;28;20028;-88
2023/06/08 11:25:57;;;;;;;8.25;4.32;;;;;;;32.02;74.77;101559.41;5266421;28;20143;-88
2023/06/08 11:28:29;;;;;;;7.85;4.65;;;;;;;32.12;74.65;101553.13;5269085;28;20028;-86
2023/06/08 11:31:10;;;;;;;7.78;4.40;;;;;;;32.31;74.60;101558.97;5267785;28;20059;-88
2023/06/08 11:33:49;;;;;;;7.50;4.35;;;;;;;32.30;74.50;101554.59;5268263;28;20496;-86
2023/06/08 11:36:20;;;;;;;5.80;4.47;;;;;;;32.18;73.91;101549.28;5268827;28;20312;-87
2023/06/08 11:38:51;;;;;;;8.80;4.25;;;;;;;32.76;72.37;101549.97;5268462;28;20477;-87